Terminal Aerodrome Forecast
Issued by NWS Goodland, KS

Home | Current Version | Previous Version | Text Only | Print | Product List | Glossary On
Versions: 1 2 3 4 5 6 7 8 9 10 11 12 13 14 15 16 17 18 19 20 21
574
FTUS43 KGLD 050520
TAFGLD
TAF
KGLD 050520Z 0506/0606 20016G25KT P6SM BKN150
     FM051000 22011KT P6SM BKN130
     FM051400 26008KT P6SM BKN130
     FM051700 32009KT P6SM SCT130 BKN200
     FM051900 34013G19KT P6SM BKN200
     FM060500 36012KT P6SM BKN080=

USA.gov is the U.S. government's official web portal to all federal, state and local government web resources and services.